createdAt,value
2019-03-10T00:00:28.071Z,16.45
2019-03-10T00:02:56.837Z,19.25
2019-03-10T00:05:25.626Z,13.95
2019-03-10T00:07:54.572Z,14.43
2019-03-10T00:10:23.371Z,13.58
2019-03-10T00:12:52.120Z,17.12
2019-03-10T00:15:21.011Z,17.67
2019-03-10T00:17:49.834Z,11.70
2019-03-10T00:20:18.594Z,13.20
2019-03-10T00:22:47.427Z,12.85
2019-03-10T00:25:16.196Z,13.35
2019-03-10T00:27:44.953Z,16.07
2019-03-10T00:30:15.837Z,16.90
2019-03-10T00:32:44.817Z,9.63
2019-03-10T00:35:13.796Z,10.93
2019-03-10T00:37:42.627Z,18.73
2019-03-10T00:40:35.129Z,16.00
2019-03-10T00:43:40.343Z,25.02
2019-03-10T00:46:21.164Z,17.30
2019-03-10T00:49:26.422Z,16.97
2019-03-10T00:51:58.133Z,16.50
2019-03-10T00:54:26.908Z,17.17
2019-03-10T00:56:55.723Z,23.98
2019-03-10T00:59:24.964Z,19.23
2019-03-10T01:01:53.724Z,17.60
2019-03-10T01:04:22.795Z,28.98
2019-03-10T01:06:52.094Z,22.75
2019-03-10T01:09:20.863Z,17.10
2019-03-10T01:11:49.882Z,25.57
2019-03-10T01:14:18.634Z,15.68
2019-03-10T01:16:48.111Z,18.20
2019-03-10T01:19:17.816Z,19.85
2019-03-10T01:21:48.287Z,21.20
2019-03-10T01:24:17.042Z,20.10
2019-03-10T01:26:45.914Z,18.77
2019-03-10T01:29:14.803Z,16.75
2019-03-10T01:32:14.044Z,22.45
2019-03-10T01:35:03.273Z,20.77
2019-03-10T01:37:32.162Z,18.85
2019-03-10T01:40:00.931Z,17.60
2019-03-10T01:42:29.704Z,19.07
2019-03-10T01:44:58.527Z,15.13
2019-03-10T01:47:27.281Z,17.25
2019-03-10T01:49:56.168Z,17.98
2019-03-10T01:52:24.963Z,20.80
2019-03-10T01:54:53.786Z,24.70
2019-03-10T01:57:22.582Z,16.50
2019-03-10T01:59:51.353Z,20.65
2019-03-10T02:02:25.639Z,17.48
2019-03-10T02:04:50.703Z,21.02
2019-03-10T02:07:19.551Z,24.30
2019-03-10T02:09:48.361Z,23.90
2019-03-10T02:12:17.227Z,22.90
2019-03-10T02:14:46.042Z,18.52
2019-03-10T02:17:14.847Z,13.88
2019-03-10T02:19:44.079Z,23.18
2019-03-10T02:22:13.020Z,23.50
2019-03-10T02:24:41.779Z,17.60
2019-03-10T02:27:10.551Z,21.10
2019-03-10T02:29:39.420Z,16.90
2019-03-10T02:32:08.211Z,21.42
2019-03-10T02:34:36.952Z,14.50
2019-03-10T02:37:05.845Z,20.85
2019-03-10T02:39:34.637Z,15.40
2019-03-10T02:42:03.427Z,25.30
2019-03-10T02:44:32.257Z,17.57
2019-03-10T02:47:01.008Z,20.05
2019-03-10T02:49:29.845Z,22.93
2019-03-10T02:51:58.652Z,20.40
2019-03-10T02:54:27.434Z,16.42
2019-03-10T02:56:56.217Z,19.65
2019-03-10T02:59:25.028Z,22.20
2019-03-10T03:01:54.195Z,21.62
2019-03-10T03:04:22.979Z,31.93
2019-03-10T03:06:51.801Z,22.95
2019-03-10T03:09:20.680Z,22.73
2019-03-10T03:11:49.495Z,19.50
2019-03-10T03:14:18.263Z,19.62
2019-03-10T03:16:47.022Z,23.32
2019-03-10T03:19:15.843Z,23.60
2019-03-10T03:21:44.658Z,24.67
2019-03-10T03:24:13.504Z,21.17
2019-03-10T03:26:42.296Z,18.80
2019-03-10T03:29:11.197Z,26.50
2019-03-10T03:31:39.952Z,29.35
2019-03-10T03:34:08.698Z,23.75
2019-03-10T03:36:37.607Z,32.33
2019-03-10T03:39:24.367Z,26.77
2019-03-10T03:41:53.202Z,24.02
2019-03-10T03:44:21.998Z,21.33
2019-03-10T03:46:50.721Z,22.80
2019-03-10T03:49:19.556Z,25.57
2019-03-10T03:51:48.290Z,27.93
2019-03-10T03:54:17.068Z,19.52
2019-03-10T03:56:45.916Z,20.40
2019-03-10T03:59:14.751Z,24.92
2019-03-10T04:01:47.647Z,15.28
2019-03-10T04:04:16.504Z,16.65
2019-03-10T04:06:45.270Z,23.10
2019-03-10T04:09:14.049Z,15.10
2019-03-10T04:11:42.818Z,26.80
2019-03-10T04:14:11.609Z,19.85
2019-03-10T04:16:40.361Z,25.23
2019-03-10T04:19:09.156Z,22.52
2019-03-10T04:21:37.971Z,23.90
2019-03-10T04:24:06.722Z,27.93
2019-03-10T04:26:35.613Z,17.37
2019-03-10T04:29:04.391Z,20.55
2019-03-10T04:31:33.189Z,20.25
2019-03-10T04:34:01.997Z,21.68
2019-03-10T04:36:30.803Z,20.37
2019-03-10T04:38:59.667Z,20.25
2019-03-10T04:41:28.494Z,18.57
2019-03-10T04:43:57.299Z,21.15
2019-03-10T04:46:26.072Z,19.52
2019-03-10T04:48:54.978Z,22.30
2019-03-10T04:51:23.812Z,23.40
2019-03-10T04:53:52.691Z,29.40
2019-03-10T04:56:23.144Z,21.65
2019-03-10T04:58:52.462Z,25.50
2019-03-10T05:01:21.972Z,19.77
2019-03-10T05:03:50.778Z,27.32
2019-03-10T05:06:19.573Z,26.12
2019-03-10T05:08:48.383Z,21.30
2019-03-10T05:11:17.299Z,21.05
2019-03-10T05:13:46.089Z,15.70
2019-03-10T05:16:14.814Z,20.97
2019-03-10T05:18:43.610Z,21.42
2019-03-10T05:21:12.440Z,32.53
2019-03-10T05:23:41.594Z,18.60
2019-03-10T05:26:10.415Z,26.50
2019-03-10T05:28:44.113Z,26.90
2019-03-10T05:31:12.850Z,21.52
2019-03-10T05:33:41.685Z,22.40
2019-03-10T05:36:10.453Z,17.05
2019-03-10T05:38:39.250Z,18.80
2019-03-10T05:41:08.032Z,15.58
2019-03-10T05:43:36.790Z,20.68
2019-03-10T05:46:05.572Z,21.15
2019-03-10T05:48:34.422Z,16.73
2019-03-10T05:51:03.210Z,18.70
2019-03-10T05:53:32.018Z,18.82
2019-03-10T05:56:00.800Z,22.60
2019-03-10T05:58:29.637Z,22.30
2019-03-10T06:00:58.399Z,26.23
2019-03-10T06:03:27.249Z,16.40
2019-03-10T06:05:56.024Z,22.87
2019-03-10T06:08:24.821Z,23.85
2019-03-10T06:10:53.633Z,22.10
2019-03-10T06:13:22.434Z,26.80
2019-03-10T06:15:51.231Z,25.65
2019-03-10T06:18:20.167Z,22.00
2019-03-10T06:20:48.999Z,15.93
2019-03-10T06:23:17.975Z,17.42
2019-03-10T06:25:46.783Z,17.92
2019-03-10T06:28:15.593Z,19.32
2019-03-10T06:30:44.379Z,15.58
2019-03-10T06:33:13.210Z,24.52
2019-03-10T06:35:41.998Z,17.75
2019-03-10T06:38:10.754Z,23.98
2019-03-10T06:40:39.576Z,19.77
2019-03-10T06:43:08.395Z,15.85
2019-03-10T06:45:37.150Z,15.53
2019-03-10T06:48:05.975Z,18.30
2019-03-10T06:50:34.838Z,14.40
2019-03-10T06:53:03.578Z,13.83
2019-03-10T06:55:32.422Z,18.52
2019-03-10T06:58:01.200Z,11.30
2019-03-10T07:00:29.981Z,20.48
2019-03-10T07:02:58.766Z,20.08
2019-03-10T07:05:27.540Z,13.83
2019-03-10T07:07:56.322Z,21.02
2019-03-10T07:10:25.138Z,17.10
2019-03-10T07:12:53.915Z,13.15
2019-03-10T07:15:22.665Z,14.90
2019-03-10T07:17:51.457Z,17.98
2019-03-10T07:20:20.760Z,14.78
2019-03-10T07:22:49.520Z,12.53
2019-03-10T07:25:18.527Z,16.07
2019-03-10T07:27:51.606Z,14.90
2019-03-10T07:30:31.033Z,16.55
2019-03-10T07:33:16.507Z,16.42
2019-03-10T07:35:53.056Z,10.95
2019-03-10T07:38:32.677Z,13.25
2019-03-10T07:41:19.902Z,9.93
2019-03-10T07:43:59.260Z,11.43
2019-03-10T07:46:29.698Z,10.95
2019-03-10T07:49:18.423Z,13.25
2019-03-10T07:51:54.827Z,15.75
2019-03-10T07:54:37.306Z,15.15
2019-03-10T07:57:10.676Z,15.70
2019-03-10T07:59:46.549Z,15.32
2019-03-10T08:02:22.471Z,10.82
2019-03-10T08:04:52.855Z,10.50
2019-03-10T08:07:23.253Z,10.53
2019-03-10T08:10:09.986Z,14.98
2019-03-10T08:12:46.161Z,10.65
2019-03-10T08:15:33.085Z,6.78
2019-03-10T08:18:15.695Z,8.00
2019-03-10T08:20:51.949Z,11.25
2019-03-10T08:23:34.663Z,7.70
2019-03-10T08:26:05.143Z,8.20
2019-03-10T08:28:51.931Z,10.72
2019-03-10T08:31:38.579Z,6.22
2019-03-10T08:34:11.805Z,5.42
2019-03-10T08:36:45.267Z,9.17
2019-03-10T08:39:15.695Z,5.05
2019-03-10T08:41:57.698Z,5.47
2019-03-10T08:44:30.496Z,5.50
2019-03-10T08:47:00.878Z,5.30
2019-03-10T08:49:44.836Z,7.17
2019-03-10T08:52:12.794Z,7.08
2019-03-10T08:54:43.253Z,6.65
2019-03-10T08:57:16.324Z,7.80
2019-03-10T09:00:03.066Z,5.17
2019-03-10T09:02:52.015Z,4.33
2019-03-10T09:05:38.788Z,7.70
2019-03-10T09:08:15.255Z,4.37
2019-03-10T09:10:48.399Z,3.90
2019-03-10T09:13:34.997Z,6.47
2019-03-10T09:16:08.182Z,6.67
2019-03-10T09:18:41.617Z,4.17
2019-03-10T09:21:12.082Z,4.45
2019-03-10T09:23:54.411Z,3.67
2019-03-10T09:26:33.812Z,3.67
2019-03-10T09:29:04.199Z,2.22
2019-03-10T09:31:43.850Z,2.98
2019-03-10T09:34:16.935Z,2.87
2019-03-10T09:37:03.341Z,2.30
2019-03-10T09:39:39.533Z,3.55
2019-03-10T09:42:12.875Z,2.15
2019-03-10T09:44:49.757Z,2.77
2019-03-10T09:47:23.101Z,3.00
2019-03-10T09:49:56.345Z,1.62
2019-03-10T09:52:43.071Z,2.30
2019-03-10T09:55:22.519Z,7.33
2019-03-10T09:57:55.409Z,3.50
2019-03-10T10:00:34.586Z,2.33
2019-03-10T10:03:20.892Z,2.12
2019-03-10T10:05:53.805Z,5.17
2019-03-10T10:08:40.535Z,5.85
2019-03-10T10:11:19.881Z,2.75
2019-03-10T10:13:50.328Z,4.30
2019-03-10T10:16:20.775Z,2.12
2019-03-10T10:18:51.231Z,2.30
2019-03-10T10:21:36.873Z,2.27
2019-03-10T10:24:07.289Z,2.35
2019-03-10T10:26:54.418Z,2.98
2019-03-10T10:29:41.369Z,2.15
2019-03-10T10:32:11.864Z,2.25
2019-03-10T10:34:42.505Z,2.70
2019-03-10T10:37:18.749Z,2.40
2019-03-10T10:39:58.032Z,2.27
2019-03-10T10:42:44.805Z,1.57
2019-03-10T10:45:24.200Z,1.57
2019-03-10T10:47:54.648Z,2.45
2019-03-10T10:50:41.332Z,2.80
2019-03-10T10:53:18.061Z,2.65
2019-03-10T10:55:51.073Z,1.90
2019-03-10T10:58:21.515Z,3.95
2019-03-10T11:00:51.968Z,3.42
2019-03-10T11:03:22.400Z,1.92
2019-03-10T11:05:52.826Z,2.33
2019-03-10T11:08:26.238Z,3.75
2019-03-10T11:10:56.618Z,3.85
2019-03-10T11:13:30.058Z,3.62
2019-03-10T11:16:00.508Z,1.95
2019-03-10T11:18:36.781Z,1.40
2019-03-10T11:21:23.768Z,1.50
2019-03-10T11:23:54.189Z,2.20
2019-03-10T11:26:24.596Z,2.87
2019-03-10T11:29:09.883Z,4.37
2019-03-10T11:31:51.979Z,4.25
2019-03-10T11:34:22.419Z,2.83
2019-03-10T11:36:55.644Z,2.42
2019-03-10T11:39:28.818Z,3.10
2019-03-10T11:42:08.093Z,3.90
2019-03-10T11:44:44.290Z,2.55
2019-03-10T11:47:14.696Z,2.30
2019-03-10T11:49:48.182Z,2.30
2019-03-10T11:52:18.623Z,4.92
2019-03-10T11:55:01.027Z,2.92
2019-03-10T11:57:31.473Z,2.62
2019-03-10T12:00:01.875Z,1.87
2019-03-10T12:02:47.668Z,3.98
2019-03-10T12:05:27.419Z,2.60
2019-03-10T12:08:00.789Z,2.55
2019-03-10T12:10:29.547Z,3.50
2019-03-10T12:12:58.342Z,3.75
2019-03-10T12:15:27.136Z,3.02
2019-03-10T12:17:55.922Z,2.95
2019-03-10T12:20:24.710Z,3.00
2019-03-10T12:22:53.525Z,7.25
2019-03-10T12:25:22.323Z,6.40
2019-03-10T12:27:51.077Z,7.70
2019-03-10T12:30:19.878Z,9.88
2019-03-10T12:32:48.654Z,9.20
2019-03-10T12:35:17.419Z,12.63
2019-03-10T12:37:46.245Z,12.58
2019-03-10T12:40:15.102Z,20.45
2019-03-10T12:42:43.914Z,19.77
2019-03-10T12:45:12.779Z,26.65
2019-03-10T12:47:41.592Z,27.58
2019-03-10T12:50:12.485Z,29.80
2019-03-10T12:52:41.305Z,23.55
2019-03-10T12:55:10.564Z,22.98
2019-03-10T12:57:39.351Z,21.12
2019-03-10T13:00:13.768Z,16.65
2019-03-10T13:02:42.685Z,15.90
2019-03-10T13:05:11.637Z,18.07
2019-03-10T13:07:40.435Z,16.27
2019-03-10T13:10:09.252Z,20.75
2019-03-10T13:12:38.116Z,17.17
2019-03-10T13:15:11.958Z,19.05
2019-03-10T13:17:40.739Z,26.90
2019-03-10T13:20:11.352Z,25.30
2019-03-10T13:22:40.165Z,17.55
2019-03-10T13:25:11.486Z,21.57
2019-03-10T13:27:40.264Z,20.72
2019-03-10T13:30:11.499Z,19.05
2019-03-10T13:32:40.279Z,17.65
2019-03-10T13:35:09.091Z,20.10
2019-03-10T13:37:37.900Z,14.90
2019-03-10T13:40:11.656Z,12.80
2019-03-10T13:42:40.620Z,12.25
2019-03-10T13:45:13.801Z,12.45
2019-03-10T13:47:42.529Z,10.30
2019-03-10T13:50:13.535Z,11.33
2019-03-10T13:52:42.362Z,14.33
2019-03-10T13:55:11.478Z,18.85
2019-03-10T13:57:40.255Z,19.27
2019-03-10T14:00:15.437Z,13.25
2019-03-10T14:02:44.319Z,13.90
2019-03-10T14:05:13.139Z,9.13
2019-03-10T14:07:42.042Z,9.45
2019-03-10T14:10:11.745Z,6.55
2019-03-10T14:12:40.518Z,11.75
2019-03-10T14:15:13.547Z,11.53
2019-03-10T14:17:42.402Z,8.45
2019-03-10T14:20:13.345Z,11.08
2019-03-10T14:22:42.211Z,9.38
2019-03-10T14:25:13.966Z,13.05
2019-03-10T14:27:42.754Z,10.82
2019-03-10T14:30:16.736Z,8.95
2019-03-10T14:32:45.532Z,10.20
2019-03-10T14:35:14.725Z,11.83
2019-03-10T14:37:43.483Z,9.15
2019-03-10T14:40:17.971Z,14.13
2019-03-10T14:42:46.780Z,11.33
2019-03-10T14:45:17.738Z,12.75
2019-03-10T14:47:46.527Z,9.83
2019-03-10T14:50:19.020Z,9.83
2019-03-10T14:52:47.761Z,8.43
2019-03-10T14:55:20.806Z,6.72
2019-03-10T14:57:49.671Z,10.23
2019-03-10T15:00:26.491Z,8.00
2019-03-10T15:02:55.303Z,7.08
2019-03-10T15:05:24.087Z,4.75
2019-03-10T15:07:52.857Z,5.05
2019-03-10T15:10:21.637Z,5.15
2019-03-10T15:12:50.419Z,3.40
2019-03-10T15:15:22.588Z,7.87
2019-03-10T15:17:50.347Z,9.50
2019-03-10T15:20:21.463Z,7.33
2019-03-10T15:22:49.835Z,7.15
2019-03-10T15:25:25.023Z,5.22
2019-03-10T15:27:53.260Z,5.62
2019-03-10T15:30:26.164Z,7.08
2019-03-10T15:32:55.251Z,8.63
2019-03-10T15:35:24.037Z,5.00
2019-03-10T15:37:52.803Z,7.75
2019-03-10T15:40:21.680Z,8.40
2019-03-10T15:42:50.500Z,6.45
2019-03-10T15:45:19.764Z,6.12
2019-03-10T15:47:48.716Z,10.30
2019-03-10T15:50:26.161Z,17.00
2019-03-10T15:52:54.977Z,17.52
2019-03-10T15:55:23.812Z,11.15
2019-03-10T15:57:52.528Z,6.42
2019-03-10T16:00:22.681Z,10.10
2019-03-10T16:02:51.468Z,7.30
2019-03-10T16:05:20.323Z,8.15
2019-03-10T16:07:49.137Z,7.12
2019-03-10T16:10:18.175Z,7.60
2019-03-10T16:12:49.299Z,7.50
2019-03-10T16:15:22.475Z,6.53
2019-03-10T16:17:51.284Z,7.12
2019-03-10T16:20:20.052Z,5.90
2019-03-10T16:22:48.845Z,7.87
2019-03-10T16:25:19.142Z,9.63
2019-03-10T16:27:49.725Z,6.70
2019-03-10T16:30:22.609Z,9.30
2019-03-10T16:32:51.399Z,8.78
2019-03-10T16:35:22.155Z,10.08
2019-03-10T16:48:17.494Z,12.25
2019-03-10T16:55:00.625Z,10.68
2019-03-10T16:57:29.466Z,13.40
2019-03-10T16:59:58.231Z,12.28
2019-03-10T17:02:27.119Z,6.90
2019-03-10T17:04:55.922Z,6.75
2019-03-10T17:07:24.726Z,7.85
2019-03-10T17:09:53.619Z,6.55
2019-03-10T17:12:22.482Z,6.90
2019-03-10T17:14:51.218Z,5.58
2019-03-10T17:17:20.109Z,18.32
2019-03-10T17:19:48.890Z,12.98
2019-03-10T17:22:17.767Z,8.73
2019-03-10T17:24:46.620Z,11.93
2019-03-10T17:27:15.508Z,8.63
2019-03-10T17:29:44.309Z,7.42
2019-03-10T17:32:14.059Z,6.97
2019-03-10T17:34:42.908Z,6.65
2019-03-10T17:37:11.682Z,6.37
2019-03-10T17:39:40.539Z,6.78
2019-03-10T17:42:09.429Z,7.22
2019-03-10T17:44:41.523Z,5.70
2019-03-10T17:47:08.684Z,6.35
2019-03-10T17:49:37.606Z,6.50
2019-03-10T17:52:14.097Z,6.53
2019-03-10T17:54:37.029Z,5.65
2019-03-10T17:57:05.763Z,7.35
2019-03-10T17:59:34.581Z,11.45
2019-03-10T18:02:09.351Z,13.80
2019-03-10T18:04:37.103Z,13.13
2019-03-10T18:07:05.885Z,15.43
2019-03-10T18:09:34.707Z,12.30
2019-03-10T18:12:03.535Z,11.85
2019-03-10T18:14:32.329Z,13.18
2019-03-10T18:17:01.158Z,15.75
2019-03-10T18:19:29.927Z,14.40
2019-03-10T18:21:58.781Z,15.85
2019-03-10T18:24:27.598Z,15.90
2019-03-10T18:26:56.432Z,13.28
2019-03-10T18:29:25.255Z,11.30
2019-03-10T18:31:54.160Z,11.68
2019-03-10T18:34:22.924Z,10.48
2019-03-10T18:36:51.767Z,9.10
2019-03-10T18:39:20.673Z,8.00
2019-03-10T18:41:49.456Z,10.68
2019-03-10T18:44:18.257Z,9.40
2019-03-10T18:46:47.102Z,9.60
2019-03-10T18:49:15.894Z,10.65
2019-03-10T18:51:44.845Z,11.45
2019-03-10T18:54:13.656Z,10.48
2019-03-10T18:56:42.526Z,13.10
2019-03-10T18:59:11.400Z,9.43
2019-03-10T19:01:40.294Z,7.17
2019-03-10T19:04:09.070Z,7.08
2019-03-10T19:06:37.842Z,5.53
2019-03-10T19:09:07.491Z,5.45
2019-03-10T19:11:36.273Z,3.83
2019-03-10T19:14:05.001Z,3.95
2019-03-10T19:16:33.894Z,4.72
2019-03-10T19:19:02.691Z,6.40
2019-03-10T19:25:03.155Z,4.37
2019-03-10T19:27:31.909Z,6.05
2019-03-10T19:30:00.714Z,6.70
2019-03-10T19:32:31.559Z,15.85
2019-03-10T19:35:00.447Z,17.05
2019-03-10T19:37:29.258Z,10.25
2019-03-10T19:39:58.168Z,9.18
2019-03-10T19:42:26.940Z,5.55
2019-03-10T19:44:55.681Z,7.03
2019-03-10T19:47:27.501Z,6.40
2019-03-10T19:49:57.773Z,4.17
2019-03-10T19:52:26.667Z,7.03
2019-03-10T19:54:55.476Z,4.95
2019-03-10T19:57:27.256Z,5.20
2019-03-10T19:59:56.026Z,5.15
2019-03-10T20:02:24.862Z,5.15
2019-03-10T20:04:53.685Z,4.65
2019-03-10T20:07:22.579Z,6.83
2019-03-10T20:09:51.408Z,6.45
2019-03-10T20:12:20.185Z,3.40
2019-03-10T20:14:49.001Z,4.87
2019-03-10T20:17:17.880Z,4.53
2019-03-10T20:19:46.698Z,4.25
2019-03-10T20:22:15.436Z,2.87
2019-03-10T20:24:44.287Z,6.50
2019-03-10T20:27:13.072Z,3.92
2019-03-10T20:32:59.120Z,3.08
2019-03-10T20:35:27.920Z,5.03
2019-03-10T20:37:56.662Z,7.15
2019-03-10T20:40:26.780Z,2.65
2019-03-10T20:42:55.611Z,4.78
2019-03-10T20:45:24.930Z,4.35
2019-03-10T20:47:56.350Z,4.55
2019-03-10T20:50:24.347Z,6.72
2019-03-10T20:52:53.124Z,5.67
2019-03-10T20:55:22.092Z,5.50
2019-03-10T20:57:50.925Z,4.15
2019-03-10T21:00:24.641Z,4.97
2019-03-10T21:02:53.502Z,4.37
2019-03-10T21:05:22.261Z,5.53
2019-03-10T21:07:51.103Z,3.58
2019-03-10T21:10:23.590Z,5.72
2019-03-10T21:12:52.351Z,4.65
2019-03-10T21:15:22.386Z,5.42
2019-03-10T21:17:51.441Z,4.17
2019-03-10T21:20:23.964Z,3.92
2019-03-10T21:22:52.801Z,3.05
2019-03-10T21:25:32.478Z,4.25
2019-03-10T21:28:01.928Z,3.72
2019-03-10T21:30:34.694Z,2.10
2019-03-10T21:33:03.698Z,5.90
2019-03-10T21:35:33.439Z,4.15
2019-03-10T21:38:02.540Z,6.15
2019-03-10T21:40:32.272Z,5.45
2019-03-10T21:43:01.129Z,7.47
2019-03-10T21:45:30.371Z,9.35
2019-03-10T21:47:59.255Z,10.95
2019-03-10T21:50:28.049Z,7.22
2019-03-10T21:52:56.865Z,7.50
2019-03-10T21:55:25.703Z,6.95
2019-03-10T21:57:54.710Z,8.05
2019-03-10T22:00:23.511Z,8.00
2019-03-10T22:02:52.319Z,11.33
2019-03-10T22:05:21.104Z,9.48
2019-03-10T22:07:49.878Z,10.50
2019-03-10T22:10:27.588Z,7.78
2019-03-10T22:12:53.299Z,8.50
2019-03-10T22:15:22.106Z,10.45
2019-03-10T22:17:50.938Z,10.25
2019-03-10T22:20:20.548Z,12.70
2019-03-10T22:22:50.192Z,16.02
2019-03-10T22:25:19.270Z,14.07
2019-03-10T22:27:48.081Z,14.33
2019-03-10T22:30:36.245Z,17.30
2019-03-10T22:33:05.012Z,19.10
2019-03-10T22:35:33.816Z,16.80
2019-03-10T22:38:02.625Z,16.52
2019-03-10T22:40:31.369Z,14.10
2019-03-10T22:43:00.184Z,14.93
2019-03-10T22:45:29.010Z,17.23
2019-03-10T22:47:57.839Z,14.87
2019-03-10T22:50:26.583Z,19.02
2019-03-10T22:52:55.419Z,15.50
2019-03-10T22:55:24.204Z,14.70
2019-03-10T22:57:52.991Z,14.47
2019-03-10T23:00:39.567Z,16.50
2019-03-10T23:03:08.309Z,10.98
2019-03-10T23:05:37.104Z,9.48
2019-03-10T23:08:05.936Z,11.48
2019-03-10T23:10:34.713Z,7.50
2019-03-10T23:13:03.483Z,10.80
2019-03-10T23:15:32.279Z,10.82
2019-03-10T23:18:01.049Z,12.68
2019-03-10T23:20:29.927Z,12.90
2019-03-10T23:22:58.742Z,12.95
2019-03-10T23:25:27.523Z,10.30
2019-03-10T23:27:56.375Z,10.55
2019-03-10T23:30:25.196Z,9.93
2019-03-10T23:32:54.025Z,11.95
2019-03-10T23:35:22.836Z,8.98
2019-03-10T23:37:51.640Z,5.53
2019-03-10T23:40:20.383Z,7.97
2019-03-10T23:42:49.196Z,11.60
2019-03-10T23:45:18.757Z,7.03
2019-03-10T23:47:47.738Z,7.58
2019-03-10T23:50:17.589Z,10.23
2019-03-10T23:52:46.682Z,6.58
2019-03-10T23:55:15.664Z,6.95
2019-03-10T23:57:44.400Z,9.88
